Hualapai Flat, Nevada Weather observations

Data are for 10 minute period ending at time listed.
 Day   Time   Solar   Ave.   Ave.  Ave.  Vector  Max.   Baro.   Total    
  of    of     Rad.   Air    Rel.  Wind   Wind   Wind  Press.  Precip.   
Year   Day            Temp.  Hum.  Speed  Dir.   Gust                    
2014   (PST)  Kw/m2    F      %     mph   deg.    mph    mb.     in.     
-------------------------------------------------------------------------
 357    9:30   0.27   41.4    86    2.2   334     3.4   886.5    0.00 
 357    9:40   0.29   42.2    84    2.4     2     3.8   886.6    0.00 
 357    9:50   0.30   43.4    83    1.3    38     2.6   886.7    0.00 
 357   10:00   0.32   43.2    82    2.0    73     4.4   886.8    0.00 
 357   10:10   0.34   41.3    84    3.8    80     6.6   886.8    0.00 
 357   10:20   0.35   41.8    83    5.6   114     9.2   886.6    0.00 
 357   10:30   100.00  99999.0   99999  99999.0   99999   99999.0   99999.0   99999.00 
 357   10:40   100.00  99999.0   99999  99999.0   99999   99999.0   99999.0   99999.00 
 357   10:50   100.00  99999.0   99999  99999.0   99999   99999.0   99999.0   99999.00 
 357   11:00   100.00  99999.0   99999  99999.0   99999   99999.0   99999.0   99999.00 
 357   11:10   100.00  99999.0   99999  99999.0   99999   99999.0   99999.0   99999.00 
 357   11:20   100.00  99999.0   99999  99999.0   99999   99999.0   99999.0   99999.00 
 357   11:30   100.00  99999.0   99999  99999.0   99999   99999.0   99999.0   99999.00 
 357   11:40   100.00  99999.0   99999  99999.0   99999   99999.0   99999.0   99999.00 
 357   11:50   100.00  99999.0   99999  99999.0   99999   99999.0   99999.0   99999.00 
 357   12:00   100.00  99999.0   99999  99999.0   99999   99999.0   99999.0   99999.00 
 357   12:10   100.00  99999.0   99999  99999.0   99999   99999.0   99999.0   99999.00 
 357   12:20   100.00  99999.0   99999  99999.0   99999   99999.0   99999.0   99999.00 
 357   12:30   100.00  99999.0   99999  99999.0   99999   99999.0   99999.0   99999.00 
 357   12:40   100.00  99999.0   99999  99999.0   99999   99999.0   99999.0   99999.00 
 357   12:50   100.00  99999.0   99999  99999.0   99999   99999.0   99999.0   99999.00 
 357   13:00   100.00  99999.0   99999  99999.0   99999   99999.0   99999.0   99999.00 
 357   13:10   100.00  99999.0   99999  99999.0   99999   99999.0   99999.0   99999.00 
 357   13:20   100.00  99999.0   99999  99999.0   99999   99999.0   99999.0   99999.00 
 357   13:30   100.00  99999.0   99999  99999.0   99999   99999.0   99999.0   99999.00 
 357   13:40   100.00  99999.0   99999  99999.0   99999   99999.0   99999.0   99999.00 
 357   13:50   100.00  99999.0   99999  99999.0   99999   99999.0   99999.0   99999.00 
 357   14:00   100.00  99999.0   99999  99999.0   99999   99999.0   99999.0   99999.00 
 357   14:10   100.00  99999.0   99999  99999.0   99999   99999.0   99999.0   99999.00 
 357   14:20   100.00  99999.0   99999  99999.0   99999   99999.0   99999.0   99999.00 
 357   14:30   100.00  99999.0   99999  99999.0   99999   99999.0   99999.0   99999.00 
 357   14:40   100.00  99999.0   99999  99999.0   99999   99999.0   99999.0   99999.00 
 357   14:50   100.00  99999.0   99999  99999.0   99999   99999.0   99999.0   99999.00 
 357   15:00   100.00  99999.0   99999  99999.0   99999   99999.0   99999.0   99999.00 
 357   15:10   100.00  99999.0   99999  99999.0   99999   99999.0   99999.0   99999.00 
 357   15:20   100.00  99999.0   99999  99999.0   99999   99999.0   99999.0   99999.00 
 357   15:30   100.00  99999.0   99999  99999.0   99999   99999.0   99999.0   99999.00 
 357   15:40   100.00  99999.0   99999  99999.0   99999   99999.0   99999.0   99999.00 
 357   15:50   100.00  99999.0   99999  99999.0   99999   99999.0   99999.0   99999.00 
 357   16:00   100.00  99999.0   99999  99999.0   99999   99999.0   99999.0   99999.00 
 357   16:10   100.00  99999.0   99999  99999.0   99999   99999.0   99999.0   99999.00 
 357   16:20   100.00  99999.0   99999  99999.0   99999   99999.0   99999.0   99999.00 
 357   16:30   100.00  99999.0   99999  99999.0   99999   99999.0   99999.0   99999.00 
 357   16:40   100.00  99999.0   99999  99999.0   99999   99999.0   99999.0   99999.00 
 357   16:50   100.00  99999.0   99999  99999.0   99999   99999.0   99999.0   99999.00 
 357   17:00   100.00  99999.0   99999  99999.0   99999   99999.0   99999.0   99999.00 
 357   17:10   100.00  99999.0   99999  99999.0   99999   99999.0   99999.0   99999.00 
 357   17:20   100.00  99999.0   99999  99999.0   99999   99999.0   99999.0   99999.00 
 357   17:30   0.00   39.6    82    4.2   274     6.3   882.4    0.00 
 357   17:40   0.00   37.6    86    5.9   284     6.9   882.4    0.00 
 357   17:50   0.00   37.8    88    5.5   294     6.2   882.4    0.00 
 357   18:00   0.00   38.5    86    5.9   297     6.9   882.4    0.00 
 357   18:10   0.00   38.5    86    5.5   297     6.7   882.4    0.00 
 357   18:20   0.00   37.9    86    6.2   303     6.8   882.5    0.00 
 357   18:30   0.00   37.5    87    5.6   313     6.7   882.4    0.00 
 357   18:40   0.00   37.0    88    5.0   333     5.8   882.3    0.00 
 357   18:50   0.00   36.9    88    4.8   304     5.5   882.2    0.00 
 357   19:00   0.00   36.2    89    5.9   302     6.8   882.1    0.00 
 357   19:10   0.00   36.3    89    5.5   300     6.4   882.1    0.00 
 357   19:20   0.00   36.2    89    4.8   298     5.8   882.1    0.00 
 357   19:30   0.00   35.8    88    5.3   294     6.2   882.1    0.00 
 357   19:40   0.00   35.2    90    6.0   294     6.9   882.0    0.00 
 357   19:50   0.00   35.7    90    5.6   297     6.7   882.0    0.00 
 357   20:00   0.00   35.5    89    5.5   298     6.8   881.9    0.00 
 357   20:10   0.00   34.4    90    4.8   294     5.6   881.7    0.00 
 357   20:20   0.00   33.4    91    4.7   349     6.1   881.7    0.00 
 357   20:30   0.00   34.2    91    5.4   336     6.3   881.8    0.00 
 357   20:40   0.00   33.8    91    5.4   326     6.1   881.8    0.00 
 357   20:50   0.00   33.6    92    4.7   318     5.2   881.7    0.00 
 357   21:00   0.00   33.4    92    5.1   319     5.8   881.7    0.00 
 357   21:10   0.00   33.6    92    4.8   309     6.0   881.6    0.00 
 357   21:20   0.00   33.5    93    4.9   263     6.1   881.5    0.00 
 357   21:30   0.00   35.3    91    3.6   284     4.1   881.4    0.00 
 357   21:40   0.00   34.4    90    4.6   278     5.7   881.3    0.00 
 357   21:50   0.00   34.6    92    5.3   247     6.4   881.2    0.00 
 357   22:00   0.00   34.0    91    4.8   276     5.8   881.2    0.00 
 357   22:10   0.00   33.3    91    5.1   277     6.2   881.1    0.00 
 357   22:20   0.00   32.2    92    3.9   314     6.0   881.0    0.00 
 357   22:30   0.00   32.3    93    4.5   300     6.6   881.0    0.00 
 357   22:40   0.00   33.4    94    5.7   298     7.0   880.9    0.00 
 357   22:50   0.00   33.1    90    4.7   340     5.6   880.9    0.00 
 357   23:00   0.00   31.8    94    5.1   333     5.8   880.7    0.00 
 357   23:10   0.00   32.7    93    4.8   341     6.1   880.6    0.00 
 357   23:20   0.00   31.6    93    4.8   343     5.3   880.4    0.00 
 357   23:30   0.00   31.8    94    5.2   327     5.9   880.2    0.00 
 357   23:40   0.00   32.2    94    4.3   309     5.1   880.1    0.00 
 357   23:50   0.00   31.7    94    4.5   302     5.5   879.9    0.00 
 358    0:00   0.00   32.0    95    4.9   293     5.6   879.7    0.00 
 358    0:10   0.00   32.3    94    5.8   290     6.5   879.5    0.00 
 358    0:20   0.00   32.2    94    5.4   302     6.5   879.4    0.00 
 358    0:30   0.00   32.0    94    5.5   309     6.6   879.1    0.00 
 358    0:40   0.00   32.0    94    5.0   287     5.8   878.9    0.00 
 358    0:50   0.00   31.9    95    5.4   297     6.4   878.8    0.00 
 358    1:00   0.00   31.9    94    4.5   300     6.8   878.8    0.00 
 358    1:10   0.00   32.5    94    5.7   298     7.6   878.6    0.00 
 358    1:20   0.00   31.9    93    3.4   328     4.6   878.3    0.00 
 358    1:30   0.00   30.9    94    4.2   306     5.5   878.1    0.00 
 358    1:40   0.00   31.1    94    4.6   288     5.6   878.1    0.00 
 358    1:50   0.00   30.7    94    1.9   215     3.9   878.1    0.00 
 358    2:00   0.00   30.2    95    3.3   252     4.4   878.1    0.00 
 358    2:10   0.00   30.3    95    1.7   301     3.0   878.1    0.00 
 358    2:20   0.00   29.9    95    1.0   107     3.1   877.9    0.00 
 358    2:30   0.00   31.0    96    0.7   249     2.0   877.7    0.00 
 358    2:40   0.00   30.5    94    1.6   244     3.9   877.4    0.00 
 358    2:50   0.00   30.4    95    3.0   279     4.1   877.1    0.00 
 358    3:00   0.00   30.5    94    1.9   291     3.9   876.8    0.00 
 358    3:10   0.00   29.8    96    2.0   288     3.3   876.6    0.00 
 358    3:20   0.00   30.4    95    3.0   280     5.3   876.6    0.00 
 358    3:30   0.00   29.0    95    3.2   318     5.2   876.5    0.00 
 358    3:40   0.00   28.7    95    4.1   347     6.1   876.1    0.00 
 358    3:50   0.00   27.9    96    1.4   351     4.1   875.9    0.00 
 358    4:00   0.00   28.9    96    1.7     3     3.1   875.9    0.00 
 358    4:10   0.00   28.9    95    3.6   340     5.4   875.6    0.00 
 358    4:20   0.00   30.1    97    3.6   326     4.8   875.5    0.00 
 358    4:30   0.00   30.6    95    3.2   335     4.7   875.4    0.00 
 358    4:40   0.00   30.6    95    3.5   318     4.9   875.1    0.00 
 358    4:50   0.00   30.5    95    4.1   320     6.3   875.0    0.00 
 358    5:00   0.00   30.7    95    2.7   300     5.9   874.9    0.00 
 358    5:10   0.00   31.4    95    4.3   301     6.1   874.9    0.00 
 358    5:20   0.00   31.0    94    3.1     4     4.8   874.8    0.00 
 358    5:30   0.00   29.8    94    2.1    49     5.6   874.7    0.00 
 358    5:40   0.00   28.8    94    2.8    23     6.1   874.3    0.00 
 358    5:50   0.00   28.3    95    2.9   233     5.9   874.3    0.00 
 358    6:00   0.00   28.5    95    2.2   262     7.8   873.8    0.00 
 358    6:10   0.00   29.3    96    3.1   343     8.5   873.8    0.00 
 358    6:20   0.00   30.5    97    3.1   329     8.4   873.5    0.00 
 358    6:30   0.00   30.4    95    3.5   358     6.6   873.2    0.00 
 358    6:40   0.00   30.9    97    3.3   353     6.1   873.2    0.00 
 358    6:50   0.00   31.6    96    3.0   327     6.7   873.1    0.00 
 358    7:00   0.00   32.1    96    4.8   340     7.5   873.0    0.00 
 358    7:10   0.00   32.5    96    5.8   352     7.3   872.3    0.00 
 358    7:20   0.00   32.9    96    3.7   343     6.4   872.2    0.00 
 358    7:30   0.00   33.3    96    4.3   312     8.7   872.2    0.00 
 358    7:40   0.01   34.2    95    4.7   327     6.7   872.0    0.00 
 358    7:50   0.02   33.5    94    3.1   348     7.1   871.7    0.00 
 358    8:00   0.02   34.3    95    3.9     6     5.5   871.6    0.00 
 358    8:10   0.03   34.2    94    3.2   357     6.9   871.4    0.00 
 358    8:20   0.04   34.7    94    4.5    12     7.5   871.3    0.00 
 358    8:30   0.05   34.5    94    5.3   324     9.9   871.2    0.00 
 358    8:40   0.06   35.3    94    3.8   292     6.2   871.2    0.00 
 358    8:50   0.06   35.7    94    3.0   304     5.6   871.1    0.00 
 358    9:00   0.07   35.8    93    5.1    12     8.2   870.8    0.00 
 358    9:10   0.09   36.8    93    3.9    26     6.1   870.6    0.00 
 358    9:20   0.12   37.9    92    3.8   345     6.9   870.3    0.00 

Return to Hualapai Flat graphs page.


Western Regional Climate Center,wrcc@dri.edu